ADDS METAR Data INFO
IDs: Format: Raw Decoded Include TAF

Data at: 2243 UTC 11 Dec 2017

KFAR 112153Z 35020KT 10SM CLR M08/M12 A3027 RMK AO2 PK WND 36031/2114 SLP265 T10831117
KFAR 112053Z 35024G33KT 10SM SCT014 M08/M11 A3024 RMK AO2 PK WND 35034/2036 UPE1959B23E43SNB1959E00B11E23B29E37 SLP254 P0000 60000 T10781111 51034
KFAR 112015Z 34025G33KT 8SM -SN BKN016 M07/M11 A3020 RMK AO2 PK WND 35033/2010 UPE1959SNB1959E00B11 P0000 T10671106
KFAR 112000Z 35023G31KT 10SM BKN014 M07/M10 A3020 RMK AO2 PK WND 35031/1957 UPE1959SNB1959E00 P0000 T10671100
KFAR 111953Z 35025G34KT 9SM UP SCT012 M07/M10 A3020 RMK AO2 PK WND 35040/1908 UPB52SNB50E52 SLP241 P0000 T10671100
KFAR 111925Z 34026G36KT 10SM SCT014 M07/M10 A3019 RMK AO2 PK WND 35040/1908 T10671100
KFAR 111904Z 35029G38KT 10SM BKN014 M06/M09 A3018 RMK AO2 PK WND 35038/1856 T10611094
KFAR 111853Z 34029G38KT 10SM SCT016 M06/M09 A3017 RMK AO2 PK WND 34039/1802 SNB18E39 SLP232 P0000 T10611094
KFAR 111832Z 35026G36KT 3SM -SN BKN017 BKN024 M06/M08 A3016 RMK AO2 PK WND 34039/1802 SNB18 P0000 T10561083
KFAR 111824Z 34024G35KT 1 3/4SM -SN BR BKN017 OVC024 M06/M08 A3015 RMK AO2 PK WND 34039/1802 VIS 1 1/4V3 SNB18 P0000 T10561078
KFAR 111753Z 34029G41KT 10SM FEW015 OVC026 M04/M08 A3013 RMK AO2 PK WND 35041/1744 UPE1655 SLP218 P0000 60000 T10441078 10022 21044 51056
KFAR 111653Z 35026G38KT 9SM UP OVC015 M03/M06 A3008 RMK AO2 PK WND 34043/1601 UPB45 SLP202 P0000 T10331061
KFAR 111553Z 35032G42KT 10SM OVC015 M03/M06 A3003 RMK AO2 PK WND 34045/1539 SLP184 T10281056
KFAR 111453Z AUTO 35027G41KT 10SM OVC011 M02/M04 A2996 RMK AO2 PK WND 34046/1421 SLP161 60000 T10221039 53065
KFAR 111353Z AUTO 35031G43KT 10SM OVC012 M01/M02 A2989 RMK AO2 PK WND 35043/1350 UPB21E24SNB06E21 SLP134 P0000 T10061022
KFAR 111331Z AUTO 35029G41KT 10SM BKN010 OVC017 01/M01 A2986 RMK AO2 PK WND 34042/1320 UPB21E24SNB06E21 CIG 006V013 P0000 T00061011
KFAR 111311Z 34023G35KT 5SM -SN BR BKN008 BKN015 OVC019 01/00 A2984 RMK AO2 PK WND 34038/1254 SNB06 CIG 006V011 PRESRR P0000 T00110000 $
KFAR 111253Z 34033G41KT 10SM OVC016 02/00 A2981 RMK AO2 PK WND 34041/1252 SLP107 T00220000 $
KFAR 111153Z 32014KT 10SM BKN023 OVC029 02/01 A2977 RMK AO2 SLP091 60001 70005 T00220006 10033 21011 53022 $
KFAR 111053Z 32015KT 10SM BKN026 BKN042 OVC050 03/01 A2973 RMK AO2 SLP077 T00280006 $
KFAR 110953Z 30011KT 10SM SCT042 02/M02 A2970 RMK AO2 SLP069 T00171017 $
KFAR 110853Z 19005KT 10SM BKN090 01/M01 A2970 RMK AO2 RAE06 SLP069 P0000 60001 T00111006 58021 $
KFAR 110814Z 18006KT 10SM SCT049 BKN065 OVC075 01/M01 A2970 RMK AO2 RAE06 P0000 T00111006 $
KFAR 110753Z 20009KT 10SM -RA BKN048 BKN060 OVC075 01/M01 A2972 RMK AO2 UPB01E22B38E40RAB22 SLP075 P0001 T00111011 $
KFAR 110653Z 18008KT 10SM FEW055 OVC080 00/M02 A2975 RMK AO2 SLP088 T00001022 $
KFAR 110553Z 17010KT 10SM FEW050 BKN100 BKN120 M01/M03 A2976 RMK AO2 SLP093 60004 T10111028 11006 21022 410061089 58042 $
KFAR 110453Z 17008KT 10SM SCT049 OVC110 M01/M03 A2983 RMK AO2 UPB19E22SNE19 SLP115 P0002 T10111028 $
KFAR 110417Z 18012KT 6SM -SN BR SCT029 BKN044 OVC055 M01/M03 A2984 RMK AO2 P0002 T10111028 $
KFAR 110359Z 18011KT 2SM -SN BR OVC021 M02/M03 A2985 RMK AO2 P0001 T10171028 $
KFAR 110348Z 18011KT 1 3/4SM -SN BR BKN025 OVC038 M02/M03 A2988 RMK AO2 SLP132 P0002 T10171028 $
KFAR 110347Z 18010KT 1 3/4SM -SN BR BKN025 OVC038 M02/M03 A2988 RMK AO2 P0002 $
KFAR 110317Z 17012KT 4SM -SN BR OVC031 M02/M03 A2987 RMK AO2 P0001 T10171033 $
KFAR 110310Z 17010KT 2 1/2SM -SN BR OVC024 M02/M03 A2987 RMK AO2 P0001 T10171033 $
KFAR 110253Z 17011KT 1 1/2SM -SN BR OVC024 M02/M04 A2989 RMK AO2 SNB38 PRESFR SLP138 P0000 60000 T10221039 58036 $
KFAR 110249Z 17011KT 2SM -SN OVC029 M02/M04 A2990 RMK AO2 SNB38 PRESFR P0000 $
KFAR 110153Z 16007KT 10SM OVC080 M02/M06 A2994 RMK AO2 SLP153 T10171056 $
KFAR 110053Z 17004KT 10SM BKN085 M02/M06 A2996 RMK AO2 SLP159 T10221061 $
KFAR 102353Z 15003KT 10SM OVC085 M02/M06 A3000 RMK AO2 SLP174 T10221056 11022 21033 58014 $
KFAR 102253Z 20003KT 10SM OVC090 M02/M06 A3003 RMK AO2 SLP183 T10221056 $
KFAR 102153Z 00000KT 10SM OVC095 M03/M06 A3003 RMK AO2 SLP184 T10281061 $
KFAR 102053Z 00000KT 10SM OVC095 M03/M07 A3004 RMK AO2 SLP187 T10281067 55006 $
KFAR 101953Z 02003KT 10SM OVC110 M02/M07 A3003 RMK AO2 SLP185 T10221067 $
KFAR 101853Z 35004KT 10SM SCT120 M03/M07 A3005 RMK AO2 SLP190 T10281067
KFAR 101753Z 36005KT 10SM SCT120 M03/M07 A3006 RMK AO2 SLP192 T10331067 11033 21089 50009
KFAR 101653Z 34008KT 10SM FEW120 M04/M07 A3007 RMK AO2 SLP197 T10441072
KFAR 101553Z 33007KT 10SM CLR M06/M08 A3005 RMK AO2 SLP189 T10561078
KFAR 101453Z 35005KT 10SM CLR M08/M09 A3003 RMK AO2 SLP186 T10831094 51012
KFAR 101353Z 33004KT 10SM CLR M08/M09 A3003 RMK AO2 SLP183 T10781094
KFAR 101253Z 32007KT 10SM CLR M07/M08 A3001 RMK AO2 SLP177 T10671083
KFAR 101153Z AUTO 32009KT 10SM CLR M06/M08 A2999 RMK AO2 SLP172 T10561078 11006 21056 51023
KFAR 101053Z AUTO 33009KT 10SM SCT100 M04/M07 A2998 RMK AO2 SLP168 T10441072